Terminal Aerodrome Forecast
Issued by NWS Sterling, VA

Current Version | Previous Version | Graphics & Text | Print | Product List | Glossary On
Versions: 1 2 3 4 5 6 7 8 9 10 11 12 13
000
FTUS41 KLWX 182300
TAFMRB
TAF
KMRB 182340Z 1900/1924 29010G18KT P6SM BKN050
     FM191400 31014G23KT P6SM SCT050
     FM192200 30010KT P6SM FEW250=

USA.gov is the U.S. government's official web portal to all federal, state and local government web resources and services.